Time;durP1;ratioP1;P1;durP2;ratioP2;P2;SDS_P1;SDS_P2;PMS_P1;PMS_P2;Temp;Humidity;BMP_temperature;BMP_pressure;BME280_temperature;BME280_humidity;BME280_pressure;Samples;Min_cycle;Max_cycle;Signal;HPM_P1;HPM_P2
2022/11/15 00:00:52;;;;;;;17.40;11.00;;;8.70;99.90;8.30;100500.00;;;;4878498;28;104314;-64
2022/11/15 00:03:26;;;;;;;20.70;12.17;;;7.90;99.90;8.30;100498.00;;;;4878703;28;115190;-63
2022/11/15 00:05:52;;;;;;;18.60;11.60;;;8.40;99.90;8.30;100496.00;;;;4879615;28;92913;-63
2022/11/15 00:08:18;;;;;;;12.27;9.77;;;8.60;99.90;8.30;100492.00;;;;4878021;28;113169;-64
2022/11/15 00:10:58;;;;;;;15.03;9.90;;;8.40;99.90;8.30;100496.00;;;;4880583;28;93829;-64
2022/11/15 00:13:24;;;;;;;14.10;9.90;;;8.40;99.90;8.30;100491.00;;;;4883017;28;93026;-64
2022/11/15 00:15:50;;;;;;;15.30;11.47;;;8.30;99.90;8.30;100505.00;;;;4877796;28;122346;-64
2022/11/15 00:18:16;;;;;;;17.23;11.33;;;8.40;99.90;8.30;100494.00;;;;4880746;28;92136;-64
2022/11/15 00:20:42;;;;;;;19.33;12.03;;;8.40;99.90;8.30;100488.00;;;;4879661;28;101222;-64
2022/11/15 00:23:08;;;;;;;17.47;12.60;;;8.90;99.90;8.30;100481.00;;;;4885773;28;92835;-64
2022/11/15 00:25:34;;;;;;;17.60;11.60;;;8.30;99.90;8.30;100497.00;;;;4876837;28;119506;-64
2022/11/15 00:28:00;;;;;;;18.77;11.13;;;8.30;99.90;8.30;100487.00;;;;4877904;28;113709;-64
2022/11/15 00:30:27;;;;;;;23.40;12.20;;;8.30;99.90;8.30;100488.00;;;;4883299;28;99900;-64
2022/11/15 00:32:53;;;;;;;15.60;9.97;;;8.40;99.90;8.30;100489.00;;;;4882130;28;116811;-64
2022/11/15 00:35:19;;;;;;;18.03;11.13;;;8.60;99.90;8.30;100498.00;;;;4879117;28;122660;-65
2022/11/15 00:37:47;;;;;;;17.90;12.13;;;8.40;99.90;8.30;100495.00;;;;4888997;28;92958;-65
2022/11/15 00:40:13;;;;;;;16.17;11.63;;;8.40;99.90;8.20;100490.00;;;;4885541;28;92926;-64
2022/11/15 00:42:39;;;;;;;19.37;12.07;;;8.40;99.90;8.30;100484.00;;;;4880667;28;93619;-63
2022/11/15 00:45:05;;;;;;;23.90;14.77;;;8.40;99.90;8.30;100487.00;;;;4883825;28;101392;-64
2022/11/15 00:47:31;;;;;;;18.97;11.50;;;8.30;99.90;8.20;100485.00;;;;4881651;28;108410;-64
2022/11/15 00:49:57;;;;;;;14.50;9.90;;;8.30;99.90;8.20;100487.00;;;;4885696;28;106732;-65
2022/11/15 00:52:23;;;;;;;16.87;11.43;;;8.30;99.90;8.20;100487.00;;;;4879743;28;95622;-64
2022/11/15 00:54:48;;;;;;;15.60;11.23;;;8.30;99.90;8.20;100488.00;;;;4881052;28;122280;-64
2022/11/15 00:57:14;;;;;;;16.50;13.67;;;8.30;99.90;8.10;100479.00;;;;4879199;28;112215;-65
2022/11/15 00:59:40;;;;;;;14.80;11.50;;;8.30;99.90;8.10;100480.00;;;;4882152;28;104759;-64
2022/11/15 01:02:05;;;;;;;18.00;11.07;;;8.60;99.90;8.10;100476.00;;;;4883979;28;122114;-65
2022/11/15 01:04:31;;;;;;;16.83;10.80;;;8.40;99.90;8.10;100487.00;;;;4882030;28;121829;-64
2022/11/15 01:06:57;;;;;;;15.83;11.10;;;8.10;99.90;8.00;100481.00;;;;4882262;28;113365;-64
2022/11/15 01:09:22;;;;;;;25.47;13.67;;;8.40;99.90;8.00;100475.00;;;;4880880;28;108157;-64
2022/11/15 01:11:48;;;;;;;22.20;11.40;;;8.10;99.90;8.00;100472.00;;;;4880053;28;122097;-65
2022/11/15 01:14:14;;;;;;;11.83;10.43;;;8.10;99.90;8.00;100466.00;;;;4880127;28;122851;-64
2022/11/15 01:16:39;;;;;;;20.00;12.63;;;8.60;99.90;8.00;100468.00;;;;4878967;28;112218;-64
2022/11/15 01:19:05;;;;;;;20.93;11.40;;;8.50;99.90;8.00;100467.00;;;;4877440;28;108713;-64
2022/11/15 01:21:31;;;;;;;16.23;11.60;;;8.40;99.90;8.00;100457.00;;;;4883216;28;121341;-63
2022/11/15 01:23:57;;;;;;;15.53;11.87;;;8.10;99.90;7.90;100458.00;;;;4880248;28;121683;-64
2022/11/15 01:26:24;;;;;;;17.77;11.30;;;8.60;99.90;7.90;100452.00;;;;4880370;28;108246;-64
2022/11/15 01:28:49;;;;;;;15.53;12.63;;;8.00;99.90;7.90;100455.00;;;;4880799;28;92982;-63
2022/11/15 01:31:19;;;;;;;18.10;11.67;;;8.00;99.90;7.90;100470.00;;;;4879861;28;92857;-64
2022/11/15 01:33:46;;;;;;;20.07;12.27;;;8.30;99.90;7.80;100454.00;;;;4893436;28;92876;-65
2022/11/15 01:36:23;;;;;;;18.20;10.93;;;8.00;99.90;7.80;100447.00;;;;4886498;28;105921;-64
2022/11/15 01:38:59;;;;;;;12.97;11.20;;;7.80;99.90;7.80;100449.00;;;;4883810;28;94052;-63
2022/11/15 01:41:31;;;;;;;22.33;11.53;;;7.80;99.90;7.80;100446.00;;;;4879350;28;93419;-64
2022/11/15 01:44:39;;;;;;;19.90;11.90;;;8.00;99.90;7.60;100434.00;;;;4882603;28;114338;-64
2022/11/15 01:47:29;;;;;;;16.13;11.13;;;7.90;99.90;7.60;100450.00;;;;4883225;28;92831;-63
2022/11/15 01:50:09;;;;;;;15.40;12.27;;;7.80;99.90;7.60;100442.00;;;;4896200;28;93034;-64
2022/11/15 01:52:37;;;;;;;17.07;11.77;;;7.70;99.90;7.60;100436.00;;;;4883318;28;93479;-63
2022/11/15 01:55:22;;;;;;;19.17;12.27;;;8.20;99.90;7.50;100435.00;;;;4881440;28;118499;-64
2022/11/15 01:57:52;;;;;;;17.83;12.70;;;8.20;99.90;7.60;100435.00;;;;4878521;28;92188;-65
2022/11/15 02:00:18;;;;;;;17.30;11.00;;;7.70;99.90;7.50;100428.00;;;;4879648;28;99915;-64
2022/11/15 02:02:44;;;;;;;18.30;11.80;;;7.70;99.90;7.50;100423.00;;;;4878084;28;123200;-64
2022/11/15 02:05:10;;;;;;;16.30;11.40;;;8.00;99.90;7.50;100420.00;;;;4880152;28;122910;-64
2022/11/15 02:07:37;;;;;;;14.63;10.63;;;7.60;99.90;7.50;100426.00;;;;4882355;28;113227;-63
2022/11/15 02:10:18;;;;;;;14.10;12.13;;;7.60;99.90;7.40;100428.00;;;;4879517;28;92973;-64
2022/11/15 02:12:45;;;;;;;19.23;12.30;;;7.60;99.90;7.40;100423.00;;;;4876822;28;93229;-64
2022/11/15 02:15:11;;;;;;;18.13;12.17;;;7.50;99.90;7.40;100414.00;;;;4881165;28;95273;-64
2022/11/15 02:18:17;;;;;;;13.57;11.50;;;7.50;99.90;7.30;100422.00;;;;4880958;28;114881;-64
2022/11/15 02:21:11;;;;;;;14.00;10.67;;;7.50;99.90;7.30;100424.00;;;;4877352;28;103091;-64
2022/11/15 02:24:05;;;;;;;16.70;12.53;;;7.50;99.90;7.20;100421.00;;;;4884450;28;93518;-64
2022/11/15 02:27:03;;;;;;;15.37;11.03;;;7.40;99.90;7.20;100419.00;;;;4882870;28;93156;-64
2022/11/15 02:30:04;;;;;;;21.93;13.07;;;7.40;99.90;7.20;100416.00;;;;4880125;28;93142;-63
2022/11/15 02:32:43;;;;;;;14.43;10.07;;;7.30;99.90;7.10;100409.00;;;;4872617;28;93893;-64
2022/11/15 02:35:35;;;;;;;15.97;11.50;;;7.30;99.90;7.10;100408.00;;;;4876691;28;93751;-63
2022/11/15 02:38:22;;;;;;;13.90;11.50;;;7.30;99.90;7.10;100404.00;;;;4873503;28;110898;-64
2022/11/15 02:41:02;;;;;;;15.93;12.60;;;7.30;99.90;7.10;100403.00;;;;4875740;28;92742;-64
2022/11/15 02:44:12;;;;;;;19.53;11.90;;;7.70;99.90;7.10;100397.00;;;;4874971;28;92999;-64
2022/11/15 02:49:37;;;;;;;17.27;12.87;;;7.90;99.90;7.20;100393.00;;;;4874247;28;92735;-64
2022/11/15 02:52:03;;;;;;;16.83;10.87;;;7.30;99.90;7.10;100390.00;;;;4873935;28;105854;-64
2022/11/15 02:54:34;;;;;;;18.30;12.10;;;7.30;99.90;7.10;100388.00;;;;4876367;28;98666;-64
2022/11/15 02:57:07;;;;;;;14.53;10.63;;;7.80;99.90;7.10;100380.00;;;;4876685;28;92929;-63
2022/11/15 02:59:50;;;;;;;17.33;12.93;;;7.20;99.90;7.10;100381.00;;;;4876979;28;98273;-64
2022/11/15 03:02:42;;;;;;;19.37;12.37;;;7.30;99.90;7.10;100387.00;;;;4875768;28;93779;-64
2022/11/15 03:05:41;;;;;;;19.70;13.27;;;7.30;99.90;7.20;100379.00;;;;4875100;28;99949;-65
2022/11/15 03:08:10;;;;;;;18.60;12.87;;;7.30;99.90;7.20;100373.00;;;;4889123;28;114427;-63
2022/11/15 03:11:03;;;;;;;20.30;11.20;;;7.70;99.90;7.20;100369.00;;;;4873707;28;93944;-64
2022/11/15 03:13:55;;;;;;;17.27;12.70;;;7.30;99.90;7.30;100361.00;;;;4876337;28;99190;-63
2022/11/15 03:16:27;;;;;;;19.40;14.07;;;7.30;99.90;7.30;100368.00;;;;4883668;28;93159;-63
2022/11/15 03:19:14;;;;;;;15.77;11.07;;;7.40;99.90;7.30;100358.00;;;;4881597;28;93394;-63
2022/11/15 03:21:40;;;;;;;17.00;11.87;;;7.40;99.90;7.30;100361.00;;;;4875283;28;92894;-64
2022/11/15 03:24:08;;;;;;;16.07;11.97;;;7.40;99.90;7.30;100363.00;;;;4878260;28;92966;-63
2022/11/15 03:26:38;;;;;;;19.93;10.37;;;7.60;99.90;7.30;100363.00;;;;4877860;28;102258;-64
2022/11/15 03:29:12;;;;;;;16.33;10.87;;;7.90;99.90;7.30;100362.00;;;;4877167;28;122284;-64
2022/11/15 03:31:48;;;;;;;20.30;12.33;;;7.40;99.90;7.20;100358.00;;;;4876965;28;109874;-64
2022/11/15 03:34:34;;;;;;;14.00;9.93;;;7.40;99.90;7.20;100347.00;;;;4877608;28;92977;-64
2022/11/15 03:37:01;;;;;;;17.03;12.60;;;7.40;99.90;7.20;100344.00;;;;4842612;28;1104701;-64
2022/11/15 03:39:28;;;;;;;19.00;12.83;;;7.70;99.90;7.20;100348.00;;;;4882627;28;123218;-64
2022/11/15 03:42:21;;;;;;;16.27;12.17;;;7.60;99.90;7.10;100341.00;;;;4889537;28;122886;-64
2022/11/15 03:44:59;;;;;;;22.17;13.03;;;7.80;99.90;7.10;100347.00;;;;4875865;28;92409;-63
2022/11/15 03:47:40;;;;;;;16.47;12.60;;;7.30;99.90;7.10;100344.00;;;;4872518;28;104446;-64
2022/11/15 03:50:17;;;;;;;13.30;10.20;;;7.20;99.90;7.10;100346.00;;;;4877313;28;117226;-63
2022/11/15 03:52:47;;;;;;;17.93;12.13;;;7.20;99.90;7.10;100332.00;;;;4876856;28;109112;-64
2022/11/15 03:55:18;;;;;;;17.27;10.67;;;7.20;99.90;7.00;100338.00;;;;4885621;28;92946;-64
2022/11/15 03:57:44;;;;;;;22.87;12.90;;;7.20;99.90;7.00;100340.00;;;;4875210;28;93315;-64
2022/11/15 04:00:11;;;;;;;17.37;11.57;;;7.10;99.90;7.00;100345.00;;;;4877267;28;113885;-64
2022/11/15 04:02:36;;;;;;;17.77;10.97;;;7.10;99.90;7.00;100346.00;;;;4877534;28;93601;-64
2022/11/15 04:05:03;;;;;;;16.77;10.80;;;7.10;99.90;6.90;100336.00;;;;4876619;28;112952;-64
2022/11/15 04:07:28;;;;;;;16.47;10.83;;;7.10;99.90;6.80;100339.00;;;;4875378;28;92843;-65
2022/11/15 04:10:03;;;;;;;15.77;10.90;;;7.50;99.90;6.80;100343.00;;;;4878804;28;122267;-64
2022/11/15 04:12:34;;;;;;;14.47;12.17;;;7.00;99.90;6.70;100339.00;;;;4877610;28;93142;-64
2022/11/15 04:15:08;;;;;;;14.53;10.07;;;6.90;99.90;6.60;100339.00;;;;4876238;28;94609;-64
2022/11/15 04:17:41;;;;;;;23.33;12.97;;;6.90;99.90;6.60;100335.00;;;;4874899;28;93815;-64
2022/11/15 04:25:59;;;;;;;15.17;10.33;;;6.80;99.90;6.60;100334.00;;;;4876515;28;94098;-64
2022/11/15 04:28:25;;;;;;;14.60;10.40;;;6.70;99.90;6.70;100319.00;;;;4880081;28;92881;-64
2022/11/15 04:30:51;;;;;;;19.97;12.97;;;6.70;99.90;6.70;100325.00;;;;4876580;28;93580;-64
2022/11/15 04:33:17;;;;;;;14.03;11.60;;;6.80;99.90;6.60;100324.00;;;;4880426;28;93277;-64
2022/11/15 04:35:43;;;;;;;15.57;11.80;;;6.80;99.90;6.60;100322.00;;;;4880029;28;103475;-63
2022/11/15 04:38:10;;;;;;;17.90;12.27;;;6.80;99.90;6.70;100320.00;;;;4882857;28;93874;-63
2022/11/15 04:40:37;;;;;;;20.80;12.93;;;6.70;99.90;6.70;100319.00;;;;4882524;28;94658;-63
2022/11/15 04:43:04;;;;;;;12.93;9.97;;;6.80;99.90;6.70;100319.00;;;;4882317;28;108013;-63
2022/11/15 04:45:30;;;;;;;20.10;12.73;;;6.80;99.90;6.70;100315.00;;;;4883835;28;92860;-63
2022/11/15 04:47:55;;;;;;;19.17;12.63;;;6.90;99.90;6.80;100315.00;;;;4881203;28;100767;-62
2022/11/15 04:50:21;;;;;;;16.93;11.93;;;6.90;99.90;6.80;100309.00;;;;4881492;28;123695;-63
2022/11/15 04:52:53;;;;;;;20.47;11.80;;;7.60;99.90;6.80;100314.00;;;;4881996;28;122748;-62
2022/11/15 04:55:19;;;;;;;14.57;10.57;;;7.10;99.90;6.70;100319.00;;;;4882266;28;92985;-63
2022/11/15 04:57:44;;;;;;;18.57;11.47;;;6.90;99.90;6.70;100322.00;;;;4882785;28;92913;-64
2022/11/15 05:00:15;;;;;;;12.43;9.90;;;6.90;99.90;6.70;100325.00;;;;4881674;28;121180;-63
2022/11/15 05:05:25;;;;;;;13.83;9.53;;;6.80;99.90;6.60;100325.00;;;;4879307;28;95411;-62
2022/11/15 05:07:51;;;;;;;13.47;8.70;;;6.80;99.90;6.50;100316.00;;;;4879202;28;109560;-63
2022/11/15 05:10:17;;;;;;;17.43;11.40;;;6.70;99.90;6.40;100330.00;;;;4880314;28;122210;-63
2022/11/15 05:12:42;;;;;;;16.33;11.03;;;6.90;99.90;6.30;100330.00;;;;4877581;28;123588;-64
2022/11/15 05:15:09;;;;;;;19.40;11.40;;;6.50;99.90;6.30;100337.00;;;;4881400;28;92863;-63
2022/11/15 05:17:34;;;;;;;15.40;11.03;;;6.50;99.90;6.10;100331.00;;;;4885667;28;92997;-63
2022/11/15 05:20:00;;;;;;;14.07;11.17;;;6.30;99.90;6.00;100325.00;;;;4880926;28;123020;-63
2022/11/15 05:22:26;;;;;;;12.83;9.37;;;6.20;99.90;5.90;100338.00;;;;4882736;28;120787;-62
2022/11/15 05:24:52;;;;;;;15.90;9.27;;;6.70;99.90;5.80;100333.00;;;;4879206;28;108170;-63
2022/11/15 05:27:18;;;;;;;16.30;11.03;;;6.10;99.90;5.70;100324.00;;;;4883400;28;92787;-64
2022/11/15 05:29:43;;;;;;;11.70;8.40;;;6.00;99.90;5.60;100323.00;;;;4880191;28;121184;-63
2022/11/15 05:32:11;;;;;;;13.03;9.23;;;5.80;99.90;5.50;100319.00;;;;4877708;28;122550;-63
2022/11/15 05:34:37;;;;;;;17.17;10.90;;;5.80;99.90;5.40;100314.00;;;;4882473;28;92831;-63
2022/11/15 05:37:03;;;;;;;14.57;10.80;;;5.70;99.90;5.30;100310.00;;;;4879015;28;108988;-62
2022/11/15 05:39:29;;;;;;;14.53;8.80;;;5.50;99.90;5.20;100300.00;;;;4875634;28;122819;-63
2022/11/15 05:42:14;;;;;;;13.73;8.77;;;5.50;99.90;5.10;100304.00;;;;4879025;28;126109;-62
2022/11/15 05:44:47;;;;;;;13.17;8.60;;;5.40;99.90;5.10;100303.00;;;;4881306;28;92974;-62
2022/11/15 05:47:23;;;;;;;13.40;9.43;;;5.30;99.90;4.90;100303.00;;;;4880890;28;93027;-63
2022/11/15 05:49:52;;;;;;;19.73;9.93;;;5.20;99.90;4.90;100302.00;;;;4879320;28;115569;-63
2022/11/15 05:52:23;;;;;;;19.13;9.87;;;5.20;99.90;4.80;100302.00;;;;4883247;28;122804;-63
2022/11/15 05:54:49;;;;;;;16.07;9.40;;;5.00;99.90;4.80;100303.00;;;;4880122;28;104628;-63
2022/11/15 05:57:16;;;;;;;17.80;9.50;;;5.00;99.90;4.70;100312.00;;;;4879898;28;109701;-62
2022/11/15 05:59:43;;;;;;;15.57;9.97;;;5.00;99.90;4.70;100301.00;;;;4878176;28;94011;-63
2022/11/15 06:02:09;;;;;;;12.03;9.67;;;4.90;99.90;4.60;100301.00;;;;4880733;28;93221;-62
2022/11/15 06:04:35;;;;;;;17.80;10.47;;;4.80;99.90;4.60;100302.00;;;;4880216;28;108188;-62
2022/11/15 06:07:01;;;;;;;15.00;9.77;;;4.80;99.90;4.50;100305.00;;;;4877171;28;108907;-63
2022/11/15 06:09:26;;;;;;;13.20;9.47;;;4.70;99.90;4.40;100298.00;;;;4878321;28;92918;-62
2022/11/15 06:11:52;;;;;;;11.30;9.13;;;4.70;99.90;4.40;100313.00;;;;4879393;28;106436;-63
2022/11/15 06:14:18;;;;;;;14.43;10.17;;;4.60;99.90;4.30;100314.00;;;;4879064;28;110364;-63
2022/11/15 06:16:44;;;;;;;15.43;10.53;;;4.60;99.90;4.30;100305.00;;;;4878495;28;108707;-64
2022/11/15 06:19:10;;;;;;;15.57;10.73;;;4.50;99.90;4.30;100303.00;;;;4877020;28;101965;-63
2022/11/15 06:21:35;;;;;;;15.07;9.40;;;4.50;99.90;4.20;100299.00;;;;4875679;28;123962;-63
2022/11/15 06:24:01;;;;;;;17.40;12.37;;;4.50;99.90;4.20;100297.00;;;;4884554;28;111616;-63
2022/11/15 06:26:27;;;;;;;19.33;9.83;;;4.40;99.90;4.20;100302.00;;;;4879565;28;93015;-63
2022/11/15 06:28:52;;;;;;;14.20;10.17;;;4.40;99.90;4.20;100310.00;;;;4879765;28;122241;-63
2022/11/15 06:31:18;;;;;;;13.63;10.43;;;4.30;99.90;4.10;100305.00;;;;4880958;28;121803;-63
2022/11/15 06:33:44;;;;;;;11.50;8.47;;;4.40;99.90;4.10;100311.00;;;;4881505;28;113111;-63
2022/11/15 06:36:16;;;;;;;14.70;10.80;;;4.40;99.90;4.10;100311.00;;;;4880976;28;107704;-63
2022/11/15 06:38:43;;;;;;;20.00;11.13;;;4.30;99.90;4.10;100319.00;;;;4878796;28;92443;-62
2022/11/15 06:41:10;;;;;;;17.77;11.37;;;4.80;99.90;4.10;100318.00;;;;4881510;28;114208;-63
2022/11/15 06:43:36;;;;;;;14.27;11.40;;;4.30;99.90;4.10;100316.00;;;;4880132;28;92887;-63
2022/11/15 06:46:04;;;;;;;13.07;11.50;;;4.30;99.90;4.10;100321.00;;;;4876202;28;94347;-63
2022/11/15 06:48:31;;;;;;;12.53;9.70;;;4.30;99.90;4.10;100323.00;;;;4878066;28;94061;-62
2022/11/15 06:50:59;;;;;;;18.33;12.57;;;4.30;99.90;4.20;100325.00;;;;4880519;28;93056;-63
2022/11/15 06:53:26;;;;;;;15.40;11.40;;;4.40;99.90;4.20;100323.00;;;;4876251;28;93230;-63
2022/11/15 06:55:52;;;;;;;17.53;12.23;;;4.40;99.90;4.30;100318.00;;;;4877166;28;98443;-63
2022/11/15 06:58:18;;;;;;;16.10;11.00;;;4.50;99.90;4.40;100338.00;;;;4876896;28;109073;-63
2022/11/15 07:00:44;;;;;;;17.67;12.90;;;4.60;99.90;4.60;100321.00;;;;4889216;28;120534;-63
2022/11/15 07:03:10;;;;;;;19.80;12.30;;;4.70;99.90;4.70;100333.00;;;;4877333;28;92246;-63
2022/11/15 07:05:36;;;;;;;17.23;11.07;;;4.80;99.90;4.80;100332.00;;;;4876228;28;108322;-63
2022/11/15 07:08:02;;;;;;;15.93;11.33;;;5.00;99.90;5.00;100331.00;;;;4876643;28;121923;-64
2022/11/15 07:10:28;;;;;;;16.87;9.80;;;5.10;99.90;5.20;100331.00;;;;4877740;28;93901;-63
2022/11/15 07:12:55;;;;;;;15.57;10.93;;;5.20;99.90;5.30;100335.00;;;;4876009;28;105766;-64
2022/11/15 07:15:24;;;;;;;15.43;11.13;;;5.40;99.90;5.50;100351.00;;;;4879920;28;92694;-63
2022/11/15 07:17:50;;;;;;;12.97;9.00;;;5.60;99.90;5.80;100341.00;;;;4881782;28;114872;-62
2022/11/15 07:20:17;;;;;;;15.43;8.43;;;5.90;99.90;5.90;100338.00;;;;4878680;28;93031;-62
2022/11/15 07:22:45;;;;;;;11.47;9.07;;;6.00;99.90;6.10;100344.00;;;;4880038;28;92632;-62
2022/11/15 07:25:11;;;;;;;14.67;9.60;;;6.20;99.90;6.40;100347.00;;;;4881317;28;93022;-64
2022/11/15 07:27:37;;;;;;;11.80;7.13;;;6.40;99.90;6.60;100340.00;;;;4879930;28;93640;-63
2022/11/15 07:30:04;;;;;;;10.50;8.00;;;6.60;99.90;6.90;100345.00;;;;4880312;28;92926;-64
2022/11/15 07:32:29;;;;;;;11.23;8.47;;;6.90;99.90;7.10;100326.00;;;;4877941;28;99224;-64
2022/11/15 07:34:55;;;;;;;9.37;7.23;;;7.20;99.90;7.30;100341.00;;;;4881384;28;107782;-63
2022/11/15 07:37:21;;;;;;;17.87;8.80;;;7.90;99.90;7.50;100345.00;;;;4882480;28;122189;-63
2022/11/15 07:39:46;;;;;;;11.97;8.37;;;7.60;99.90;7.80;100341.00;;;;4882697;28;121903;-62
2022/11/15 07:44:56;;;;;;;11.47;8.07;;;8.40;99.90;8.30;100347.00;;;;4887372;28;92832;-62
2022/11/15 07:47:22;;;;;;;10.87;7.83;;;8.30;99.90;8.60;100341.00;;;;4886547;28;123476;-64
2022/11/15 07:49:48;;;;;;;16.37;9.50;;;8.60;99.90;8.90;100331.00;;;;4882908;28;123192;-64
2022/11/15 07:52:13;;;;;;;20.03;11.30;;;8.90;99.90;9.20;100339.00;;;;4881312;28;109850;-64
2022/11/15 07:54:39;;;;;;;15.53;9.83;;;9.10;99.90;9.50;100335.00;;;;4879577;28;108355;-64
2022/11/15 07:57:06;;;;;;;21.87;13.73;;;9.40;99.90;9.80;100335.00;;;;4879230;28;93022;-64
2022/11/15 07:59:32;;;;;;;25.20;15.30;;;9.70;99.90;10.10;100337.00;;;;4878060;28;93814;-65
2022/11/15 08:01:58;;;;;;;23.87;14.27;;;10.00;99.90;10.40;100335.00;;;;4876942;28;92975;-64
2022/11/15 08:04:23;;;;;;;14.50;9.67;;;10.30;99.90;10.70;100342.00;;;;4879747;28;108400;-64
2022/11/15 08:06:49;;;;;;;16.33;11.30;;;10.60;99.90;11.00;100341.00;;;;4877378;28;109361;-63
2022/11/15 08:09:15;;;;;;;14.00;8.07;;;10.90;99.90;11.30;100346.00;;;;4875064;28;122615;-64
2022/11/15 08:11:40;;;;;;;16.00;8.80;;;11.20;99.90;11.70;100339.00;;;;4879033;28;113361;-64
2022/11/15 08:14:06;;;;;;;16.10;9.97;;;11.50;99.90;12.00;100342.00;;;;4883100;28;107627;-64
2022/11/15 08:16:32;;;;;;;10.70;8.10;;;11.90;99.90;12.40;100348.00;;;;4879247;28;122716;-65
2022/11/15 08:18:57;;;;;;;12.23;9.13;;;12.20;99.90;12.70;100338.00;;;;4875486;28;121478;-64
2022/11/15 08:21:23;;;;;;;9.50;7.23;;;12.50;99.90;13.00;100338.00;;;;4879073;28;108485;-62
2022/11/15 08:23:49;;;;;;;11.70;7.27;;;12.80;99.90;13.20;100334.00;;;;4883971;28;93873;-63
2022/11/15 08:26:14;;;;;;;12.20;7.60;;;13.10;99.90;13.40;100330.00;;;;4881190;28;121174;-63
2022/11/15 08:28:41;;;;;;;8.43;7.17;;;13.30;99.90;13.70;100336.00;;;;4881712;28;123828;-64
2022/11/15 08:31:06;;;;;;;14.03;7.47;;;13.50;99.90;14.00;100335.00;;;;4882597;28;93533;-64
2022/11/15 08:33:33;;;;;;;10.93;7.10;;;13.80;99.90;14.20;100326.00;;;;4879712;28;110019;-67
2022/11/15 08:36:00;;;;;;;12.17;6.87;;;14.00;99.90;14.60;100334.00;;;;4882480;28;93564;-63
2022/11/15 08:38:28;;;;;;;12.13;8.30;;;14.40;99.90;14.80;100340.00;;;;4880045;28;120609;-64
2022/11/15 08:41:01;;;;;;;10.43;6.93;;;14.60;99.90;15.10;100334.00;;;;4884729;28;92244;-64
2022/11/15 08:43:27;;;;;;;7.10;5.70;;;14.90;99.90;15.50;100344.00;;;;4880918;28;93147;-63
2022/11/15 08:45:56;;;;;;;11.05;7.53;;;15.20;99.90;15.70;100336.00;;;;4879027;28;93017;-63
2022/11/15 08:48:22;;;;;;;8.98;6.47;;;15.50;99.90;16.00;100340.00;;;;4881594;28;93961;-63
2022/11/15 08:50:48;;;;;;;12.07;6.38;;;15.70;99.90;16.10;100338.00;;;;4882423;28;93083;-63
2022/11/15 08:53:14;;;;;;;9.13;6.57;;;15.90;99.90;16.10;100337.00;;;;4878611;28;105213;-64
2022/11/15 08:55:40;;;;;;;10.38;6.32;;;16.00;99.90;16.00;100337.00;;;;4879792;28;121421;-63
2022/11/15 08:58:06;;;;;;;9.48;6.35;;;15.90;99.90;15.90;100324.00;;;;4881552;28;116275;-63
2022/11/15 09:00:33;;;;;;;8.02;5.95;;;15.80;99.90;15.90;100333.00;;;;4882891;28;94134;-63
2022/11/15 09:02:59;;;;;;;8.48;5.32;;;15.80;99.90;15.90;100321.00;;;;4878758;28;92880;-63
2022/11/15 09:05:25;;;;;;;10.68;6.57;;;15.80;99.90;15.90;100333.00;;;;4878910;28;93082;-63
2022/11/15 09:07:54;;;;;;;6.82;5.40;;;15.80;99.90;15.90;100335.00;;;;4879961;28;113169;-63
2022/11/15 09:10:21;;;;;;;6.93;6.10;;;15.70;99.90;16.00;100330.00;;;;4884147;28;92782;-62
2022/11/15 09:12:48;;;;;;;8.20;5.65;;;15.80;99.90;16.00;100322.00;;;;4882403;28;94162;-65
2022/11/15 09:15:15;;;;;;;9.48;5.97;;;15.90;99.20;16.10;100335.00;;;;4885100;28;93144;-65
2022/11/15 09:17:41;;;;;;;9.15;5.93;;;15.90;98.60;16.10;100325.00;;;;4887474;28;115875;-63
2022/11/15 09:20:08;;;;;;;8.43;5.43;;;16.00;97.60;16.20;100339.00;;;;4880767;28;93118;-63
2022/11/15 09:22:34;;;;;;;9.60;5.80;;;16.10;98.40;16.40;100335.00;;;;4880702;28;93164;-63
2022/11/15 09:25:00;;;;;;;9.90;5.78;;;16.20;97.40;16.50;100330.00;;;;4877813;28;94216;-63
2022/11/15 09:27:30;;;;;;;8.45;4.57;;;16.30;97.60;16.70;100332.00;;;;4880801;28;93190;-63
2022/11/15 09:29:56;;;;;;;8.27;5.88;;;16.50;96.70;16.80;100325.00;;;;4884673;28;104878;-65
2022/11/15 09:32:23;;;;;;;8.43;5.10;;;16.60;96.40;16.80;100324.00;;;;4878464;28;109207;-64
2022/11/15 09:34:51;;;;;;;7.70;4.68;;;16.60;94.60;16.80;100324.00;;;;4879697;28;94052;-62
2022/11/15 09:37:17;;;;;;;10.70;5.47;;;16.60;94.00;16.80;100318.00;;;;4878080;28;118999;-63
2022/11/15 09:39:43;;;;;;;9.20;5.72;;;16.60;93.00;16.70;100312.00;;;;4879068;28;92712;-63
2022/11/15 09:42:17;;;;;;;11.57;5.72;;;16.60;93.20;16.90;100324.00;;;;4882527;28;108723;-63
2022/11/15 09:44:51;;;;;;;5.47;4.35;;;16.70;93.80;17.00;100323.00;;;;4878393;28;109433;-65
2022/11/15 09:47:42;;;;;;;7.05;4.50;;;16.80;93.60;17.20;100325.00;;;;4892132;28;93113;-64
2022/11/15 09:50:43;;;;;;;10.43;5.18;;;17.00;92.80;17.20;100320.00;;;;4878910;28;93188;-64
2022/11/15 09:53:14;;;;;;;9.35;5.38;;;17.00;91.70;17.30;100317.00;;;;4879339;28;92858;-65
2022/11/15 09:55:57;;;;;;;4.75;4.15;;;17.10;91.30;17.30;100322.00;;;;4880156;28;92295;-64
2022/11/15 09:58:39;;;;;;;5.55;4.20;;;17.10;91.00;17.40;100326.00;;;;4879654;28;104884;-64
2022/11/15 10:01:24;;;;;;;6.75;4.35;;;17.20;90.60;17.50;100325.00;;;;4875798;28;92996;-63
2022/11/15 10:03:49;;;;;;;8.52;4.63;;;17.30;90.70;17.60;100330.00;;;;4878861;28;104098;-63
2022/11/15 10:06:26;;;;;;;8.02;4.93;;;17.40;90.90;17.90;100331.00;;;;4878764;28;120969;-63
2022/11/15 10:09:12;;;;;;;5.45;4.35;;;17.60;90.90;18.10;100317.00;;;;4883807;28;114097;-62
2022/11/15 10:11:39;;;;;;;6.20;3.95;;;17.80;89.10;18.20;100313.00;;;;4877641;28;93089;-63
2022/11/15 10:14:15;;;;;;;7.88;4.38;;;17.90;88.80;18.40;100306.00;;;;4883207;28;108798;-63
2022/11/15 10:17:10;;;;;;;8.18;4.22;;;18.10;89.50;18.90;100312.00;;;;4877938;28;93994;-64
2022/11/15 10:19:50;;;;;;;6.18;4.75;;;18.40;90.10;19.20;100309.00;;;;4891291;28;116968;-65
2022/11/15 10:22:48;;;;;;;7.25;4.25;;;18.80;88.80;19.40;100311.00;;;;4886017;28;92365;-64
2022/11/15 10:25:26;;;;;;;7.25;3.58;;;19.00;85.80;19.40;100305.00;;;;4876450;28;92929;-64
2022/11/15 10:28:06;;;;;;;8.32;4.07;;;19.10;84.00;19.60;100300.00;;;;4878743;28;93134;-64
2022/11/15 10:30:46;;;;;;;8.00;4.07;;;19.30;84.00;19.80;100302.00;;;;4893932;28;94129;-64
2022/11/15 10:33:46;;;;;;;4.57;3.58;;;19.40;81.40;19.90;100289.00;;;;4881861;28;92764;-64
2022/11/15 10:36:12;;;;;;;5.63;3.03;;;19.60;78.90;19.80;100283.00;;;;4865109;28;108000;-65
2022/11/15 10:38:49;;;;;;;8.60;4.43;;;19.50;77.90;19.90;100285.00;;;;4878148;28;123944;-64
2022/11/15 10:41:27;;;;;;;7.25;3.78;;;19.60;77.70;20.00;100276.00;;;;4877985;28;125276;-64
2022/11/15 10:44:16;;;;;;;7.53;3.97;;;19.70;75.40;20.00;100282.00;;;;4881964;28;109856;-64
2022/11/15 10:46:50;;;;;;;6.55;4.00;;;19.80;75.30;20.10;100274.00;;;;4875866;28;96290;-65
2022/11/15 10:49:19;;;;;;;8.23;3.47;;;19.80;74.50;20.20;100270.00;;;;4879003;28;92788;-66
2022/11/15 10:51:49;;;;;;;6.97;4.18;;;19.90;74.00;20.30;100273.00;;;;4882460;28;116873;-64
2022/11/15 10:54:27;;;;;;;6.53;3.72;;;20.00;73.30;20.40;100264.00;;;;4882957;28;93292;-65
2022/11/15 10:56:57;;;;;;;5.35;3.53;;;20.10;72.10;20.50;100269.00;;;;4877489;28;93824;-65
2022/11/15 10:59:31;;;;;;;5.10;3.70;;;20.10;71.40;20.60;100256.00;;;;4879625;28;109951;-65
2022/11/15 11:01:57;;;;;;;5.10;4.00;;;20.20;71.70;20.70;100253.00;;;;4891280;28;93659;-64
2022/11/15 11:04:23;;;;;;;4.88;3.40;;;20.30;70.00;20.90;100254.00;;;;4878434;28;92807;-65
2022/11/15 11:06:58;;;;;;;7.57;4.53;;;20.50;70.90;21.10;100249.00;;;;4877962;28;108785;-64
2022/11/15 11:09:42;;;;;;;4.65;3.15;;;20.70;70.40;21.30;100242.00;;;;4877846;28;92847;-65
2022/11/15 11:12:11;;;;;;;3.97;2.90;;;20.80;69.60;21.50;100249.00;;;;4874991;28;93113;-64
2022/11/15 11:14:39;;;;;;;4.13;3.15;;;21.10;67.30;21.70;100246.00;;;;4881641;28;92004;-64